sensor_id;sensor_type;location;lat;lon;timestamp;pressure;altitude;pressure_sealevel;temperature;humidity
41945;BME280;63122;52.424;13.458;2023-02-15T00:01:10;102591.22;;;4.14;100.00
41945;BME280;63122;52.424;13.458;2023-02-15T00:03:06;102589.53;;;4.13;100.00
41945;BME280;63122;52.424;13.458;2023-02-15T00:05:01;102594.81;;;4.12;100.00
41945;BME280;63122;52.424;13.458;2023-02-15T00:06:56;102588.81;;;4.10;100.00
41945;BME280;63122;52.424;13.458;2023-02-15T00:08:53;102587.91;;;4.11;100.00
41945;BME280;63122;52.424;13.458;2023-02-15T00:11:13;102587.91;;;4.11;100.00
41945;BME280;63122;52.424;13.458;2023-02-15T00:13:11;102585.22;;;4.12;100.00
41945;BME280;63122;52.424;13.458;2023-02-15T00:15:08;102587.03;;;4.10;100.00
41945;BME280;63122;52.424;13.458;2023-02-15T00:17:07;102591.34;;;4.11;100.00
41945;BME280;63122;52.424;13.458;2023-02-15T00:19:04;102588.94;;;4.07;100.00
41945;BME280;63122;52.424;13.458;2023-02-15T00:21:04;102582.03;;;4.06;100.00
41945;BME280;63122;52.424;13.458;2023-02-15T00:25:41;102577.50;;;4.09;100.00
41945;BME280;63122;52.424;13.458;2023-02-15T00:27:44;102577.94;;;3.98;100.00
41945;BME280;63122;52.424;13.458;2023-02-15T00:29:39;102573.00;;;3.91;100.00
41945;BME280;63122;52.424;13.458;2023-02-15T00:31:35;102570.31;;;3.94;100.00
41945;BME280;63122;52.424;13.458;2023-02-15T00:33:36;102567.69;;;3.94;100.00
41945;BME280;63122;52.424;13.458;2023-02-15T00:35:32;102578.00;;;3.97;100.00
41945;BME280;63122;52.424;13.458;2023-02-15T00:37:30;102569.19;;;3.99;100.00
41945;BME280;63122;52.424;13.458;2023-02-15T00:39:29;102570.97;;;3.99;100.00
41945;BME280;63122;52.424;13.458;2023-02-15T00:41:24;102565.78;;;3.97;100.00
41945;BME280;63122;52.424;13.458;2023-02-15T00:43:19;102566.78;;;3.95;100.00
41945;BME280;63122;52.424;13.458;2023-02-15T00:45:15;102559.00;;;3.93;100.00
41945;BME280;63122;52.424;13.458;2023-02-15T00:47:19;102562.66;;;3.89;100.00
41945;BME280;63122;52.424;13.458;2023-02-15T00:49:19;102563.81;;;3.82;100.00
41945;BME280;63122;52.424;13.458;2023-02-15T00:51:14;102562.22;;;3.78;100.00
41945;BME280;63122;52.424;13.458;2023-02-15T00:53:09;102562.28;;;3.76;100.00
41945;BME280;63122;52.424;13.458;2023-02-15T00:55:06;102557.09;;;3.74;100.00
41945;BME280;63122;52.424;13.458;2023-02-15T00:57:03;102557.09;;;3.74;100.00
41945;BME280;63122;52.424;13.458;2023-02-15T00:59:02;102559.63;;;3.78;100.00
41945;BME280;63122;52.424;13.458;2023-02-15T01:01:03;102554.50;;;3.74;100.00
41945;BME280;63122;52.424;13.458;2023-02-15T01:02:58;102555.34;;;3.75;100.00
41945;BME280;63122;52.424;13.458;2023-02-15T01:04:56;102552.88;;;3.72;100.00
41945;BME280;63122;52.424;13.458;2023-02-15T01:06:51;102556.41;;;3.71;100.00
41945;BME280;63122;52.424;13.458;2023-02-15T01:08:47;102559.91;;;3.70;100.00
41945;BME280;63122;52.424;13.458;2023-02-15T01:10:48;102563.47;;;3.67;100.00
41945;BME280;63122;52.424;13.458;2023-02-15T01:12:46;102554.88;;;3.65;100.00
41945;BME280;63122;52.424;13.458;2023-02-15T01:14:45;102551.41;;;3.65;100.00
41945;BME280;63122;52.424;13.458;2023-02-15T01:16:50;102558.44;;;3.63;100.00
41945;BME280;63122;52.424;13.458;2023-02-15T01:18:45;102548.84;;;3.63;100.00
41945;BME280;63122;52.424;13.458;2023-02-15T01:20:47;102544.59;;;3.60;100.00
41945;BME280;63122;52.424;13.458;2023-02-15T01:25:28;102543.63;;;3.63;100.00
41945;BME280;63122;52.424;13.458;2023-02-15T01:27:35;102542.84;;;3.61;100.00
41945;BME280;63122;52.424;13.458;2023-02-15T01:29:40;102540.78;;;3.47;100.00
41945;BME280;63122;52.424;13.458;2023-02-15T01:31:41;102534.03;;;3.41;100.00
41945;BME280;63122;52.424;13.458;2023-02-15T01:33:51;102528.91;;;3.38;100.00
41945;BME280;63122;52.424;13.458;2023-02-15T01:35:58;102524.44;;;3.42;100.00
41945;BME280;63122;52.424;13.458;2023-02-15T01:38:04;102515.72;;;3.43;100.00
41945;BME280;63122;52.424;13.458;2023-02-15T01:39:59;102513.94;;;3.43;100.00
41945;BME280;63122;52.424;13.458;2023-02-15T01:41:59;102509.75;;;3.39;100.00
41945;BME280;63122;52.424;13.458;2023-02-15T01:46:46;102509.25;;;3.29;100.00
41945;BME280;63122;52.424;13.458;2023-02-15T01:48:48;102509.91;;;3.35;100.00
41945;BME280;63122;52.424;13.458;2023-02-15T01:50:47;102506.72;;;3.28;100.00
41945;BME280;63122;52.424;13.458;2023-02-15T01:52:49;102501.53;;;3.26;100.00
41945;BME280;63122;52.424;13.458;2023-02-15T01:54:47;102490.16;;;3.29;100.00
41945;BME280;63122;52.424;13.458;2023-02-15T01:56:48;102491.91;;;3.28;100.00
41945;BME280;63122;52.424;13.458;2023-02-15T01:58:44;102495.03;;;3.14;100.00
41945;BME280;63122;52.424;13.458;2023-02-15T02:00:41;102497.72;;;3.13;100.00
41945;BME280;63122;52.424;13.458;2023-02-15T02:02:37;102494.91;;;3.17;100.00
41945;BME280;63122;52.424;13.458;2023-02-15T02:04:38;102489.56;;;3.21;100.00
41945;BME280;63122;52.424;13.458;2023-02-15T02:06:36;102496.00;;;3.12;100.00
41945;BME280;63122;52.424;13.458;2023-02-15T02:08:38;102490.78;;;3.12;100.00
41945;BME280;63122;52.424;13.458;2023-02-15T02:10:34;102483.75;;;3.14;100.00
41945;BME280;63122;52.424;13.458;2023-02-15T02:12:30;102482.78;;;3.16;100.00
41945;BME280;63122;52.424;13.458;2023-02-15T02:14:26;102480.97;;;3.19;100.00
41945;BME280;63122;52.424;13.458;2023-02-15T02:16:24;102474.03;;;3.17;100.00
41945;BME280;63122;52.424;13.458;2023-02-15T02:18:35;102476.91;;;3.11;100.00
41945;BME280;63122;52.424;13.458;2023-02-15T02:21:01;102468.88;;;2.94;100.00
41945;BME280;63122;52.424;13.458;2023-02-15T02:23:16;102472.16;;;2.99;100.00
41945;BME280;63122;52.424;13.458;2023-02-15T02:25:44;102468.91;;;2.92;100.00
41945;BME280;63122;52.424;13.458;2023-02-15T02:27:44;102471.66;;;2.89;100.00
41945;BME280;63122;52.424;13.458;2023-02-15T02:34:56;102465.53;;;2.90;100.00
41945;BME280;63122;52.424;13.458;2023-02-15T02:37:02;102464.53;;;2.93;100.00
41945;BME280;63122;52.424;13.458;2023-02-15T02:39:12;102467.16;;;2.93;100.00
41945;BME280;63122;52.424;13.458;2023-02-15T02:41:17;102463.75;;;2.91;100.00
41945;BME280;63122;52.424;13.458;2023-02-15T02:43:18;102462.00;;;2.91;100.00
41945;BME280;63122;52.424;13.458;2023-02-15T02:45:20;102458.66;;;2.87;100.00
41945;BME280;63122;52.424;13.458;2023-02-15T02:47:22;102457.97;;;2.82;100.00
41945;BME280;63122;52.424;13.458;2023-02-15T02:49:29;102455.75;;;2.71;100.00
41945;BME280;63122;52.424;13.458;2023-02-15T02:51:27;102448.13;;;2.67;100.00
41945;BME280;63122;52.424;13.458;2023-02-15T02:53:23;102444.63;;;2.68;100.00
41945;BME280;63122;52.424;13.458;2023-02-15T02:55:22;102440.59;;;2.59;100.00
41945;BME280;63122;52.424;13.458;2023-02-15T02:57:20;102435.53;;;2.54;100.00
41945;BME280;63122;52.424;13.458;2023-02-15T02:59:21;102437.34;;;2.52;100.00
41945;BME280;63122;52.424;13.458;2023-02-15T03:01:23;102434.75;;;2.52;100.00
41945;BME280;63122;52.424;13.458;2023-02-15T03:03:25;102436.41;;;2.55;100.00
41945;BME280;63122;52.424;13.458;2023-02-15T03:05:26;102435.41;;;2.57;100.00
41945;BME280;63122;52.424;13.458;2023-02-15T03:07:26;102438.03;;;2.57;100.00
41945;BME280;63122;52.424;13.458;2023-02-15T03:09:26;102425.88;;;2.58;100.00
41945;BME280;63122;52.424;13.458;2023-02-15T03:11:27;102429.31;;;2.58;100.00
41945;BME280;63122;52.424;13.458;2023-02-15T03:13:23;102427.84;;;2.51;100.00
41945;BME280;63122;52.424;13.458;2023-02-15T03:15:20;102424.31;;;2.52;100.00
41945;BME280;63122;52.424;13.458;2023-02-15T03:17:17;102422.78;;;2.47;100.00
41945;BME280;63122;52.424;13.458;2023-02-15T03:19:14;102422.84;;;2.45;100.00
41945;BME280;63122;52.424;13.458;2023-02-15T03:21:13;102426.38;;;2.44;100.00
41945;BME280;63122;52.424;13.458;2023-02-15T03:23:19;102421.94;;;2.46;100.00
41945;BME280;63122;52.424;13.458;2023-02-15T03:25:19;102420.25;;;2.45;100.00
41945;BME280;63122;52.424;13.458;2023-02-15T03:27:18;102419.38;;;2.44;100.00
41945;BME280;63122;52.424;13.458;2023-02-15T03:29:17;102428.91;;;2.45;100.00
41945;BME280;63122;52.424;13.458;2023-02-15T03:31:16;102424.66;;;2.43;100.00
41945;BME280;63122;52.424;13.458;2023-02-15T03:33:14;102423.69;;;2.45;100.00
41945;BME280;63122;52.424;13.458;2023-02-15T03:35:10;102422.72;;;2.48;100.00
41945;BME280;63122;52.424;13.458;2023-02-15T03:37:11;102423.69;;;2.45;100.00
41945;BME280;63122;52.424;13.458;2023-02-15T03:39:18;102424.53;;;2.46;100.00
41945;BME280;63122;52.424;13.458;2023-02-15T03:41:16;102422.84;;;2.45;100.00
41945;BME280;63122;52.424;13.458;2023-02-15T03:43:13;102417.88;;;2.39;100.00
41945;BME280;63122;52.424;13.458;2023-02-15T03:45:14;102422.22;;;2.38;100.00
41945;BME280;63122;52.424;13.458;2023-02-15T03:47:14;102414.50;;;2.35;100.00
41945;BME280;63122;52.424;13.458;2023-02-15T03:49:15;102419.94;;;2.29;100.00
41945;BME280;63122;52.424;13.458;2023-02-15T03:51:16;102408.03;;;2.22;100.00
41945;BME280;63122;52.424;13.458;2023-02-15T03:53:25;102415.78;;;2.23;100.00
41945;BME280;63122;52.424;13.458;2023-02-15T03:55:24;102420.13;;;2.23;100.00
41945;BME280;63122;52.424;13.458;2023-02-15T03:57:22;102405.81;;;2.11;100.00
41945;BME280;63122;52.424;13.458;2023-02-15T03:59:30;102405.09;;;2.06;100.00
41945;BME280;63122;52.424;13.458;2023-02-15T04:01:46;102409.47;;;2.05;100.00
41945;BME280;63122;52.424;13.458;2023-02-15T04:03:56;102403.59;;;2.00;100.00
41945;BME280;63122;52.424;13.458;2023-02-15T04:05:52;102408.06;;;1.95;100.00
41945;BME280;63122;52.424;13.458;2023-02-15T04:07:48;102391.72;;;1.91;100.00
41945;BME280;63122;52.424;13.458;2023-02-15T04:09:43;102399.66;;;1.88;100.00
41945;BME280;63122;52.424;13.458;2023-02-15T04:11:54;102403.34;;;1.81;100.00
41945;BME280;63122;52.424;13.458;2023-02-15T04:13:49;102401.06;;;1.71;100.00
41945;BME280;63122;52.424;13.458;2023-02-15T04:15:48;102397.66;;;1.69;100.00
41945;BME280;63122;52.424;13.458;2023-02-15T04:17:58;102394.41;;;1.63;100.00
41945;BME280;63122;52.424;13.458;2023-02-15T04:19:53;102396.41;;;1.54;100.00
41945;BME280;63122;52.424;13.458;2023-02-15T04:22:01;102397.31;;;1.53;100.00
41945;BME280;63122;52.424;13.458;2023-02-15T04:24:09;102382.59;;;1.52;100.00
41945;BME280;63122;52.424;13.458;2023-02-15T04:26:18;102384.31;;;1.53;100.00
41945;BME280;63122;52.424;13.458;2023-02-15T04:28:16;102383.41;;;1.54;100.00
41945;BME280;63122;52.424;13.458;2023-02-15T04:30:13;102382.63;;;1.51;100.00
41945;BME280;63122;52.424;13.458;2023-02-15T04:32:09;102381.94;;;1.46;100.00
41945;BME280;63122;52.424;13.458;2023-02-15T04:34:05;102379.56;;;1.39;100.00
41945;BME280;63122;52.424;13.458;2023-02-15T04:36:00;102378.75;;;1.37;100.00
41945;BME280;63122;52.424;13.458;2023-02-15T04:37:56;102377.19;;;1.32;100.00
41945;BME280;63122;52.424;13.458;2023-02-15T04:39:51;102379.75;;;1.33;100.00
41945;BME280;63122;52.424;13.458;2023-02-15T04:41:46;102385.19;;;1.25;100.00
41945;BME280;63122;52.424;13.458;2023-02-15T04:43:44;102378.44;;;1.20;100.00
41945;BME280;63122;52.424;13.458;2023-02-15T04:45:40;102380.13;;;1.21;100.00
41945;BME280;63122;52.424;13.458;2023-02-15T04:47:35;102374.28;;;1.14;100.00
41945;BME280;63122;52.424;13.458;2023-02-15T04:49:30;102370.97;;;1.09;100.00
41945;BME280;63122;52.424;13.458;2023-02-15T04:51:25;102370.13;;;1.08;100.00
41945;BME280;63122;52.424;13.458;2023-02-15T04:53:20;102370.25;;;1.04;100.00
41945;BME280;63122;52.424;13.458;2023-02-15T04:55:16;102364.25;;;1.02;100.00
41945;BME280;63122;52.424;13.458;2023-02-15T04:57:11;102361.63;;;1.03;100.00
41945;BME280;63122;52.424;13.458;2023-02-15T04:59:09;102357.47;;;0.97;100.00
41945;BME280;63122;52.424;13.458;2023-02-15T05:01:04;102359.19;;;0.97;100.00
41945;BME280;63122;52.424;13.458;2023-02-15T05:02:59;102354.00;;;0.97;100.00
41945;BME280;63122;52.424;13.458;2023-02-15T05:04:55;102350.75;;;0.90;100.00
41945;BME280;63122;52.424;13.458;2023-02-15T05:06:50;102354.41;;;0.83;100.00
41945;BME280;63122;52.424;13.458;2023-02-15T05:08:45;102347.69;;;0.77;100.00
41945;BME280;63122;52.424;13.458;2023-02-15T05:10:40;102346.88;;;0.75;100.00
41945;BME280;63122;52.424;13.458;2023-02-15T05:12:35;102338.22;;;0.75;100.00
41945;BME280;63122;52.424;13.458;2023-02-15T05:14:33;102334.78;;;0.74;100.00
41945;BME280;63122;52.424;13.458;2023-02-15T05:16:28;102334.88;;;0.71;100.00
41945;BME280;63122;52.424;13.458;2023-02-15T05:18:24;102332.22;;;0.73;100.00
41945;BME280;63122;52.424;13.458;2023-02-15T05:20:19;102339.91;;;0.76;100.00
41945;BME280;63122;52.424;13.458;2023-02-15T05:22:14;102334.72;;;0.76;100.00
41945;BME280;63122;52.424;13.458;2023-02-15T05:24:09;102335.78;;;0.70;100.00
41945;BME280;63122;52.424;13.458;2023-02-15T05:26:19;102331.06;;;0.53;100.00
41945;BME280;63122;52.424;13.458;2023-02-15T05:28:27;102337.06;;;0.55;100.00
41945;BME280;63122;52.424;13.458;2023-02-15T05:30:25;102335.63;;;0.45;100.00
41945;BME280;63122;52.424;13.458;2023-02-15T05:32:20;102332.44;;;0.35;100.00
41945;BME280;63122;52.424;13.458;2023-02-15T05:34:16;102335.25;;;0.27;100.00
41945;BME280;63122;52.424;13.458;2023-02-15T05:36:11;102335.44;;;0.21;100.00
41945;BME280;63122;52.424;13.458;2023-02-15T05:38:07;102338.75;;;0.26;100.00
41945;BME280;63122;52.424;13.458;2023-02-15T05:40:02;102332.72;;;0.25;100.00
41945;BME280;63122;52.424;13.458;2023-02-15T05:41:58;102337.13;;;0.22;100.00
41945;BME280;63122;52.424;13.458;2023-02-15T05:43:55;102333.00;;;0.16;100.00
41945;BME280;63122;52.424;13.458;2023-02-15T05:45:54;102329.63;;;0.12;100.00
41945;BME280;63122;52.424;13.458;2023-02-15T05:47:49;102328.63;;;0.17;100.00
41945;BME280;63122;52.424;13.458;2023-02-15T05:49:44;102327.00;;;0.14;100.00
41945;BME280;63122;52.424;13.458;2023-02-15T05:51:39;102326.31;;;0.07;100.00
41945;BME280;63122;52.424;13.458;2023-02-15T05:53:36;102322.03;;;0.05;100.00
41945;BME280;63122;52.424;13.458;2023-02-15T05:55:31;102319.44;;;0.05;100.00
41945;BME280;63122;52.424;13.458;2023-02-15T05:57:26;102325.53;;;0.04;100.00
41945;BME280;63122;52.424;13.458;2023-02-15T05:59:21;102324.53;;;0.08;100.00
41945;BME280;63122;52.424;13.458;2023-02-15T06:01:19;102327.94;;;0.10;100.00
41945;BME280;63122;52.424;13.458;2023-02-15T06:03:16;102327.06;;;0.11;100.00
41945;BME280;63122;52.424;13.458;2023-02-15T06:05:11;102327.00;;;0.14;100.00
41945;BME280;63122;52.424;13.458;2023-02-15T06:07:07;102326.94;;;0.16;100.00
41945;BME280;63122;52.424;13.458;2023-02-15T06:09:04;102332.94;;;0.18;100.00
41945;BME280;63122;52.424;13.458;2023-02-15T06:10:59;102324.22;;;0.20;100.00
41945;BME280;63122;52.424;13.458;2023-02-15T06:12:54;102324.25;;;0.19;100.00
41945;BME280;63122;52.424;13.458;2023-02-15T06:14:49;102321.56;;;0.22;100.00
41945;BME280;63122;52.424;13.458;2023-02-15T06:16:47;102331.13;;;0.20;100.00
41945;BME280;63122;52.424;13.458;2023-02-15T06:18:42;102322.59;;;0.16;100.00
41945;BME280;63122;52.424;13.458;2023-02-15T06:20:37;102331.22;;;0.17;100.00
41945;BME280;63122;52.424;13.458;2023-02-15T06:22:32;102332.22;;;0.12;100.00
41945;BME280;63122;52.424;13.458;2023-02-15T06:24:28;102333.22;;;0.07;100.00
41945;BME280;63122;52.424;13.458;2023-02-15T06:26:23;102325.50;;;0.05;100.00
41945;BME280;63122;52.424;13.458;2023-02-15T06:28:18;102334.00;;;0.10;100.00
41945;BME280;63122;52.424;13.458;2023-02-15T06:30:13;102330.69;;;0.05;100.00
41945;BME280;63122;52.424;13.458;2023-02-15T06:32:12;102328.22;;;0.01;100.00
41945;BME280;63122;52.424;13.458;2023-02-15T06:34:06;102322.25;;;-0.03;100.00
41945;BME280;63122;52.424;13.458;2023-02-15T06:36:02;102318.13;;;-0.10;100.00
41945;BME280;63122;52.424;13.458;2023-02-15T06:37:58;102321.44;;;-0.05;100.00
41945;BME280;63122;52.424;13.458;2023-02-15T06:39:53;102318.75;;;-0.02;100.00
41945;BME280;63122;52.424;13.458;2023-02-15T06:41:48;102320.50;;;-0.03;100.00
41945;BME280;63122;52.424;13.458;2023-02-15T06:43:44;102322.13;;;0.02;100.00
41945;BME280;63122;52.424;13.458;2023-02-15T06:45:39;102320.41;;;0.02;100.00
41945;BME280;63122;52.424;13.458;2023-02-15T06:47:37;102318.91;;;-0.07;100.00
41945;BME280;63122;52.424;13.458;2023-02-15T06:49:32;102317.41;;;-0.16;100.00
41945;BME280;63122;52.424;13.458;2023-02-15T06:51:28;102318.47;;;-0.23;100.00
41945;BME280;63122;52.424;13.458;2023-02-15T06:53:23;102315.88;;;-0.24;100.00
41945;BME280;63122;52.424;13.458;2023-02-15T06:55:18;102312.41;;;-0.23;100.00
41945;BME280;63122;52.424;13.458;2023-02-15T06:57:14;102320.34;;;-0.30;100.00
41945;BME280;63122;52.424;13.458;2023-02-15T06:59:09;102313.56;;;-0.35;100.00
41945;BME280;63122;52.424;13.458;2023-02-15T07:01:05;102316.22;;;-0.37;100.00
41945;BME280;63122;52.424;13.458;2023-02-15T07:03:04;102317.94;;;-0.36;100.00
41945;BME280;63122;52.424;13.458;2023-02-15T07:04:59;102317.94;;;-0.36;100.00
41945;BME280;63122;52.424;13.458;2023-02-15T07:06:56;102319.63;;;-0.35;100.00
41945;BME280;63122;52.424;13.458;2023-02-15T07:08:52;102307.41;;;-0.31;100.00
41945;BME280;63122;52.424;13.458;2023-02-15T07:10:48;102306.59;;;-0.33;100.00
41945;BME280;63122;52.424;13.458;2023-02-15T07:12:43;102305.03;;;-0.39;100.00
41945;BME280;63122;52.424;13.458;2023-02-15T07:14:38;102306.03;;;-0.45;100.00
41945;BME280;63122;52.424;13.458;2023-02-15T07:16:33;102307.84;;;-0.47;100.00
41945;BME280;63122;52.424;13.458;2023-02-15T07:18:31;102305.78;;;-0.35;100.00
41945;BME280;63122;52.424;13.458;2023-02-15T07:20:26;102311.06;;;-0.38;100.00
41945;BME280;63122;52.424;13.458;2023-02-15T07:22:21;102310.34;;;-0.44;100.00
41945;BME280;63122;52.424;13.458;2023-02-15T07:24:16;102313.81;;;-0.45;100.00
41945;BME280;63122;52.424;13.458;2023-02-15T07:26:12;102309.56;;;-0.47;100.00
41945;BME280;63122;52.424;13.458;2023-02-15T07:28:07;102302.66;;;-0.47;100.00
41945;BME280;63122;52.424;13.458;2023-02-15T07:30:03;102297.41;;;-0.45;100.00
41945;BME280;63122;52.424;13.458;2023-02-15T07:31:59;102293.34;;;-0.55;100.00
41945;BME280;63122;52.424;13.458;2023-02-15T07:33:57;102297.66;;;-0.56;100.00
41945;BME280;63122;52.424;13.458;2023-02-15T07:35:53;102294.22;;;-0.55;100.00
41945;BME280;63122;52.424;13.458;2023-02-15T07:37:49;102290.75;;;-0.55;100.00
41945;BME280;63122;52.424;13.458;2023-02-15T07:39:45;102279.25;;;-0.45;100.00
41945;BME280;63122;52.424;13.458;2023-02-15T07:41:40;102287.66;;;-0.35;100.00
41945;BME280;63122;52.424;13.458;2023-02-15T07:43:36;102282.53;;;-0.38;100.00
41945;BME280;63122;52.424;13.458;2023-02-15T07:45:32;102275.75;;;-0.42;100.00
41945;BME280;63122;52.424;13.458;2023-02-15T07:47:27;102270.72;;;-0.49;100.00
41945;BME280;63122;52.424;13.458;2023-02-15T07:49:25;102265.44;;;-0.46;100.00
41945;BME280;63122;52.424;13.458;2023-02-15T07:51:20;102271.81;;;-0.59;100.00
41945;BME280;63122;52.424;13.458;2023-02-15T07:53:15;102262.50;;;-0.65;100.00
41945;BME280;63122;52.424;13.458;2023-02-15T07:55:10;102269.41;;;-0.65;100.00
41945;BME280;63122;52.424;13.458;2023-02-15T07:57:06;102269.28;;;-0.61;100.00
41945;BME280;63122;52.424;13.458;2023-02-15T07:59:00;102269.31;;;-0.62;100.00
41945;BME280;63122;52.424;13.458;2023-02-15T08:00:57;102267.41;;;-0.54;100.00
41945;BME280;63122;52.424;13.458;2023-02-15T08:02:56;102263.91;;;-0.53;100.00
41945;BME280;63122;52.424;13.458;2023-02-15T08:05:07;102266.50;;;-0.53;100.00
41945;BME280;63122;52.424;13.458;2023-02-15T08:07:02;102269.03;;;-0.51;100.00
41945;BME280;63122;52.424;13.458;2023-02-15T08:08:57;102271.63;;;-0.50;100.00
41945;BME280;63122;52.424;13.458;2023-02-15T08:10:53;102268.22;;;-0.52;100.00
41945;BME280;63122;52.424;13.458;2023-02-15T08:13:00;102263.97;;;-0.56;100.00
41945;BME280;63122;52.424;13.458;2023-02-15T08:14:55;102263.16;;;-0.58;100.00
41945;BME280;63122;52.424;13.458;2023-02-15T08:16:51;102268.44;;;-0.61;100.00
41945;BME280;63122;52.424;13.458;2023-02-15T08:18:48;102268.44;;;-0.61;100.00
41945;BME280;63122;52.424;13.458;2023-02-15T08:20:48;102264.19;;;-0.64;100.00
41945;BME280;63122;52.424;13.458;2023-02-15T08:22:43;102264.13;;;-0.62;100.00
41945;BME280;63122;52.424;13.458;2023-02-15T08:24:39;102258.94;;;-0.61;100.00
41945;BME280;63122;52.424;13.458;2023-02-15T08:26:35;102262.44;;;-0.63;100.00
41945;BME280;63122;52.424;13.458;2023-02-15T08:28:33;102258.88;;;-0.59;100.00
41945;BME280;63122;52.424;13.458;2023-02-15T08:30:34;102261.47;;;-0.59;100.00
41945;BME280;63122;52.424;13.458;2023-02-15T08:32:29;102264.03;;;-0.57;100.00
41945;BME280;63122;52.424;13.458;2023-02-15T08:34:25;102257.22;;;-0.62;100.00
41945;BME280;63122;52.424;13.458;2023-02-15T08:36:25;102257.97;;;-0.58;100.00
41945;BME280;63122;52.424;13.458;2023-02-15T08:38:20;102260.47;;;-0.53;100.00
41945;BME280;63122;52.424;13.458;2023-02-15T08:40:16;102262.00;;;-0.46;100.00
41945;BME280;63122;52.424;13.458;2023-02-15T08:42:11;102261.06;;;-0.44;100.00
41945;BME280;63122;52.424;13.458;2023-02-15T08:44:08;102253.22;;;-0.40;100.00
41945;BME280;63122;52.424;13.458;2023-02-15T08:46:04;102243.63;;;-0.38;100.00
41945;BME280;63122;52.424;13.458;2023-02-15T08:47:59;102243.63;;;-0.38;100.00
41945;BME280;63122;52.424;13.458;2023-02-15T08:49:54;102247.91;;;-0.36;100.00
41945;BME280;63122;52.424;13.458;2023-02-15T08:51:52;102244.50;;;-0.38;100.00
41945;BME280;63122;52.424;13.458;2023-02-15T08:53:49;102236.63;;;-0.35;100.00
41945;BME280;63122;52.424;13.458;2023-02-15T08:55:44;102237.34;;;-0.30;100.00
41945;BME280;63122;52.424;13.458;2023-02-15T08:57:40;102234.72;;;-0.28;100.00
41945;BME280;63122;52.424;13.458;2023-02-15T08:59:37;102233.88;;;-0.28;100.00
41945;BME280;63122;52.424;13.458;2023-02-15T09:01:34;102233.97;;;-0.32;100.00
41945;BME280;63122;52.424;13.458;2023-02-15T09:03:29;102228.72;;;-0.30;100.00
41945;BME280;63122;52.424;13.458;2023-02-15T09:05:24;102228.66;;;-0.27;100.00
41945;BME280;63122;52.424;13.458;2023-02-15T09:07:22;102225.91;;;-0.22;100.00
41945;BME280;63122;52.424;13.458;2023-02-15T09:09:18;102226.81;;;-0.23;100.00
41945;BME280;63122;52.424;13.458;2023-02-15T09:11:14;102223.31;;;-0.22;100.00
41945;BME280;63122;52.424;13.458;2023-02-15T09:13:14;102219.13;;;-0.26;100.00
41945;BME280;63122;52.424;13.458;2023-02-15T09:15:09;102219.09;;;-0.25;100.00
41945;BME280;63122;52.424;13.458;2023-02-15T09:17:04;102217.94;;;-0.16;100.00
41945;BME280;63122;52.424;13.458;2023-02-15T09:19:00;102210.09;;;-0.13;100.00
41945;BME280;63122;52.424;13.458;2023-02-15T09:20:56;102216.94;;;-0.10;100.00
41945;BME280;63122;52.424;13.458;2023-02-15T09:22:55;102219.41;;;-0.06;100.00
41945;BME280;63122;52.424;13.458;2023-02-15T09:24:54;102213.25;;;-0.03;100.00
41945;BME280;63122;52.424;13.458;2023-02-15T09:26:49;102210.63;;;-0.02;100.00
41945;BME280;63122;52.424;13.458;2023-02-15T09:28:45;102216.59;;;0.02;100.00
41945;BME280;63122;52.424;13.458;2023-02-15T09:30:40;102224.38;;;0.02;100.00
41945;BME280;63122;52.424;13.458;2023-02-15T09:32:35;102230.47;;;0.01;100.00
41945;BME280;63122;52.424;13.458;2023-02-15T09:34:30;102224.28;;;0.05;100.00
41945;BME280;63122;52.424;13.458;2023-02-15T09:36:29;102222.22;;;0.17;100.00
41945;BME280;63122;52.424;13.458;2023-02-15T09:38:27;102223.72;;;0.24;100.00
41945;BME280;63122;52.424;13.458;2023-02-15T09:40:22;102222.13;;;0.20;100.00
41945;BME280;63122;52.424;13.458;2023-02-15T09:42:51;102228.03;;;0.25;100.00
41945;BME280;63122;52.424;13.458;2023-02-15T09:45:06;102221.94;;;0.26;100.00
41945;BME280;63122;52.424;13.458;2023-02-15T09:47:17;102222.56;;;0.34;100.00
41945;BME280;63122;52.424;13.458;2023-02-15T09:49:23;102218.13;;;0.38;100.00
41945;BME280;63122;52.424;13.458;2023-02-15T09:51:41;102227.59;;;0.39;100.00
41945;BME280;63122;52.424;13.458;2023-02-15T09:53:53;102217.97;;;0.42;100.00
41945;BME280;63122;52.424;13.458;2023-02-15T09:56:01;102217.19;;;0.40;100.00
41945;BME280;63122;52.424;13.458;2023-02-15T09:58:06;102220.00;;;0.33;100.00
41945;BME280;63122;52.424;13.458;2023-02-15T10:00:10;102215.47;;;0.39;100.00
41945;BME280;63122;52.424;13.458;2023-02-15T10:02:20;102208.53;;;0.40;100.00
41945;BME280;63122;52.424;13.458;2023-02-15T10:04:38;102207.38;;;0.50;100.00
41945;BME280;63122;52.424;13.458;2023-02-15T10:06:42;102203.47;;;0.64;100.00
41945;BME280;63122;52.424;13.458;2023-02-15T10:11:11;102206.03;;;0.65;100.00
41945;BME280;63122;52.424;13.458;2023-02-15T10:13:29;102205.38;;;0.59;100.00
41945;BME280;63122;52.424;13.458;2023-02-15T10:15:41;102198.53;;;0.56;100.00
41945;BME280;63122;52.424;13.458;2023-02-15T10:17:55;102197.19;;;0.71;100.00
41945;BME280;63122;52.424;13.458;2023-02-15T10:20:03;102201.84;;;0.88;100.00
41945;BME280;63122;52.424;13.458;2023-02-15T10:22:11;102198.16;;;0.94;100.00
41945;BME280;63122;52.424;13.458;2023-02-15T10:26:43;102193.47;;;1.05;100.00
41945;BME280;63122;52.424;13.458;2023-02-15T10:28:43;102198.03;;;0.98;100.00
41945;BME280;63122;52.424;13.458;2023-02-15T10:30:46;102198.50;;;1.10;100.00